sensor_id;sensor_type;location;lat;lon;timestamp;P1;durP1;ratioP1;P2;durP2;ratioP2
1020;SDS011;499;42.648;23.270;2023-09-30T00:00:08;5.93;;;4.77;;
1020;SDS011;499;42.648;23.270;2023-09-30T00:02:36;7.23;;;4.70;;
1020;SDS011;499;42.648;23.270;2023-09-30T00:05:05;5.03;;;4.43;;
1020;SDS011;499;42.648;23.270;2023-09-30T00:07:33;6.00;;;4.50;;
1020;SDS011;499;42.648;23.270;2023-09-30T00:10:00;5.00;;;4.47;;
1020;SDS011;499;42.648;23.270;2023-09-30T00:12:28;5.90;;;4.57;;
1020;SDS011;499;42.648;23.270;2023-09-30T00:14:55;6.17;;;4.33;;
1020;SDS011;499;42.648;23.270;2023-09-30T00:17:22;9.37;;;5.23;;
1020;SDS011;499;42.648;23.270;2023-09-30T00:19:49;6.40;;;4.43;;
1020;SDS011;499;42.648;23.270;2023-09-30T00:22:17;6.43;;;4.70;;
1020;SDS011;499;42.648;23.270;2023-09-30T00:24:44;5.47;;;4.40;;
1020;SDS011;499;42.648;23.270;2023-09-30T00:27:12;9.83;;;4.87;;
1020;SDS011;499;42.648;23.270;2023-09-30T00:29:39;5.70;;;4.03;;
1020;SDS011;499;42.648;23.270;2023-09-30T00:32:06;6.37;;;4.23;;
1020;SDS011;499;42.648;23.270;2023-09-30T00:34:33;6.00;;;5.00;;
1020;SDS011;499;42.648;23.270;2023-09-30T00:37:01;5.63;;;4.50;;
1020;SDS011;499;42.648;23.270;2023-09-30T00:39:30;7.90;;;5.63;;
1020;SDS011;499;42.648;23.270;2023-09-30T00:41:59;6.20;;;4.60;;
1020;SDS011;499;42.648;23.270;2023-09-30T00:44:26;5.87;;;5.20;;
1020;SDS011;499;42.648;23.270;2023-09-30T00:46:53;7.93;;;4.73;;
1020;SDS011;499;42.648;23.270;2023-09-30T00:49:21;7.03;;;5.03;;
1020;SDS011;499;42.648;23.270;2023-09-30T00:51:49;6.50;;;5.10;;
1020;SDS011;499;42.648;23.270;2023-09-30T00:54:17;4.70;;;4.13;;
1020;SDS011;499;42.648;23.270;2023-09-30T00:56:46;11.30;;;4.53;;
1020;SDS011;499;42.648;23.270;2023-09-30T00:59:14;5.43;;;4.80;;
1020;SDS011;499;42.648;23.270;2023-09-30T01:01:42;7.10;;;4.77;;
1020;SDS011;499;42.648;23.270;2023-09-30T01:04:11;7.20;;;4.93;;
1020;SDS011;499;42.648;23.270;2023-09-30T01:06:38;8.33;;;4.83;;
1020;SDS011;499;42.648;23.270;2023-09-30T01:09:05;5.47;;;4.20;;
1020;SDS011;499;42.648;23.270;2023-09-30T01:11:34;6.20;;;4.70;;
1020;SDS011;499;42.648;23.270;2023-09-30T01:14:02;8.27;;;4.77;;
1020;SDS011;499;42.648;23.270;2023-09-30T01:16:29;8.33;;;5.67;;
1020;SDS011;499;42.648;23.270;2023-09-30T01:18:56;8.90;;;4.40;;
1020;SDS011;499;42.648;23.270;2023-09-30T01:21:23;7.40;;;4.63;;
1020;SDS011;499;42.648;23.270;2023-09-30T01:23:54;5.00;;;4.50;;
1020;SDS011;499;42.648;23.270;2023-09-30T01:26:21;11.53;;;4.53;;
1020;SDS011;499;42.648;23.270;2023-09-30T01:28:49;5.50;;;4.17;;
1020;SDS011;499;42.648;23.270;2023-09-30T01:31:16;4.43;;;3.80;;
1020;SDS011;499;42.648;23.270;2023-09-30T01:33:43;7.47;;;4.27;;
1020;SDS011;499;42.648;23.270;2023-09-30T01:36:10;6.10;;;5.40;;
1020;SDS011;499;42.648;23.270;2023-09-30T01:38:37;5.37;;;4.30;;
1020;SDS011;499;42.648;23.270;2023-09-30T01:41:05;4.80;;;4.10;;
1020;SDS011;499;42.648;23.270;2023-09-30T01:43:32;5.07;;;4.20;;
1020;SDS011;499;42.648;23.270;2023-09-30T01:46:01;4.77;;;4.27;;
1020;SDS011;499;42.648;23.270;2023-09-30T01:48:30;9.03;;;4.77;;
1020;SDS011;499;42.648;23.270;2023-09-30T01:50:57;4.77;;;4.07;;
1020;SDS011;499;42.648;23.270;2023-09-30T01:53:24;9.87;;;4.10;;
1020;SDS011;499;42.648;23.270;2023-09-30T01:55:51;4.80;;;3.87;;
1020;SDS011;499;42.648;23.270;2023-09-30T01:58:19;5.73;;;4.20;;
1020;SDS011;499;42.648;23.270;2023-09-30T02:00:46;6.30;;;4.23;;
1020;SDS011;499;42.648;23.270;2023-09-30T02:03:13;12.30;;;5.17;;
1020;SDS011;499;42.648;23.270;2023-09-30T02:05:40;6.13;;;4.47;;
1020;SDS011;499;42.648;23.270;2023-09-30T02:08:08;4.60;;;3.73;;
1020;SDS011;499;42.648;23.270;2023-09-30T02:10:35;5.53;;;4.53;;
1020;SDS011;499;42.648;23.270;2023-09-30T02:13:02;5.93;;;4.73;;
1020;SDS011;499;42.648;23.270;2023-09-30T02:15:32;5.40;;;4.90;;
1020;SDS011;499;42.648;23.270;2023-09-30T02:17:59;5.37;;;4.60;;
1020;SDS011;499;42.648;23.270;2023-09-30T02:20:28;5.23;;;4.00;;
1020;SDS011;499;42.648;23.270;2023-09-30T02:22:56;5.83;;;4.80;;
1020;SDS011;499;42.648;23.270;2023-09-30T02:25:24;4.60;;;4.10;;
1020;SDS011;499;42.648;23.270;2023-09-30T02:27:51;6.40;;;4.53;;
1020;SDS011;499;42.648;23.270;2023-09-30T02:30:18;5.73;;;4.47;;
1020;SDS011;499;42.648;23.270;2023-09-30T02:32:47;6.37;;;5.07;;
1020;SDS011;499;42.648;23.270;2023-09-30T02:35:14;5.30;;;4.73;;
1020;SDS011;499;42.648;23.270;2023-09-30T02:37:41;6.20;;;4.30;;
1020;SDS011;499;42.648;23.270;2023-09-30T02:40:08;4.87;;;4.37;;
1020;SDS011;499;42.648;23.270;2023-09-30T02:42:36;9.27;;;4.73;;
1020;SDS011;499;42.648;23.270;2023-09-30T02:45:03;9.30;;;5.83;;
1020;SDS011;499;42.648;23.270;2023-09-30T02:47:31;5.60;;;4.37;;
1020;SDS011;499;42.648;23.270;2023-09-30T02:50:00;6.30;;;4.53;;
1020;SDS011;499;42.648;23.270;2023-09-30T02:52:27;5.70;;;4.47;;
1020;SDS011;499;42.648;23.270;2023-09-30T02:54:55;7.43;;;4.70;;
1020;SDS011;499;42.648;23.270;2023-09-30T02:57:23;5.17;;;4.00;;
1020;SDS011;499;42.648;23.270;2023-09-30T02:59:50;5.93;;;4.20;;
1020;SDS011;499;42.648;23.270;2023-09-30T03:02:19;6.17;;;4.30;;
1020;SDS011;499;42.648;23.270;2023-09-30T03:04:47;5.30;;;4.23;;
1020;SDS011;499;42.648;23.270;2023-09-30T03:07:17;6.20;;;5.13;;
1020;SDS011;499;42.648;23.270;2023-09-30T03:09:45;4.47;;;4.07;;
1020;SDS011;499;42.648;23.270;2023-09-30T03:12:12;5.07;;;4.57;;
1020;SDS011;499;42.648;23.270;2023-09-30T03:14:40;5.80;;;4.27;;
1020;SDS011;499;42.648;23.270;2023-09-30T03:17:07;7.10;;;4.70;;
1020;SDS011;499;42.648;23.270;2023-09-30T03:19:36;4.97;;;4.10;;
1020;SDS011;499;42.648;23.270;2023-09-30T03:22:04;6.00;;;4.70;;
1020;SDS011;499;42.648;23.270;2023-09-30T03:24:37;5.60;;;4.40;;
1020;SDS011;499;42.648;23.270;2023-09-30T03:27:04;7.27;;;4.60;;
1020;SDS011;499;42.648;23.270;2023-09-30T03:29:31;5.03;;;4.50;;
1020;SDS011;499;42.648;23.270;2023-09-30T03:31:58;5.40;;;4.70;;
1020;SDS011;499;42.648;23.270;2023-09-30T03:34:25;8.10;;;4.63;;
1020;SDS011;499;42.648;23.270;2023-09-30T03:36:53;7.13;;;4.83;;
1020;SDS011;499;42.648;23.270;2023-09-30T03:39:23;5.37;;;4.43;;
1020;SDS011;499;42.648;23.270;2023-09-30T03:41:54;5.80;;;4.60;;
1020;SDS011;499;42.648;23.270;2023-09-30T03:44:23;7.33;;;4.63;;
1020;SDS011;499;42.648;23.270;2023-09-30T03:46:50;5.00;;;4.23;;
1020;SDS011;499;42.648;23.270;2023-09-30T03:49:17;6.10;;;4.60;;
1020;SDS011;499;42.648;23.270;2023-09-30T03:51:46;4.60;;;4.07;;
1020;SDS011;499;42.648;23.270;2023-09-30T03:54:15;6.10;;;4.53;;
1020;SDS011;499;42.648;23.270;2023-09-30T03:56:42;6.80;;;3.93;;
1020;SDS011;499;42.648;23.270;2023-09-30T03:59:12;7.20;;;4.70;;
1020;SDS011;499;42.648;23.270;2023-09-30T04:01:39;5.37;;;4.40;;
1020;SDS011;499;42.648;23.270;2023-09-30T04:04:06;6.70;;;5.00;;
1020;SDS011;499;42.648;23.270;2023-09-30T04:06:34;5.40;;;4.07;;
1020;SDS011;499;42.648;23.270;2023-09-30T04:09:03;6.20;;;4.53;;
1020;SDS011;499;42.648;23.270;2023-09-30T04:11:34;5.30;;;4.40;;
1020;SDS011;499;42.648;23.270;2023-09-30T04:14:02;7.00;;;3.80;;
1020;SDS011;499;42.648;23.270;2023-09-30T04:16:32;7.03;;;4.53;;
1020;SDS011;499;42.648;23.270;2023-09-30T04:18:59;6.83;;;4.03;;
1020;SDS011;499;42.648;23.270;2023-09-30T04:21:26;7.20;;;4.90;;
1020;SDS011;499;42.648;23.270;2023-09-30T04:23:55;5.33;;;4.10;;
1020;SDS011;499;42.648;23.270;2023-09-30T04:26:23;7.10;;;4.70;;
1020;SDS011;499;42.648;23.270;2023-09-30T04:28:50;6.70;;;4.47;;
1020;SDS011;499;42.648;23.270;2023-09-30T04:31:18;5.97;;;4.07;;
1020;SDS011;499;42.648;23.270;2023-09-30T04:33:47;5.20;;;4.70;;
1020;SDS011;499;42.648;23.270;2023-09-30T04:36:16;5.07;;;4.23;;
1020;SDS011;499;42.648;23.270;2023-09-30T04:38:43;6.83;;;4.33;;
1020;SDS011;499;42.648;23.270;2023-09-30T04:41:10;4.97;;;4.03;;
1020;SDS011;499;42.648;23.270;2023-09-30T04:43:37;5.20;;;3.90;;
1020;SDS011;499;42.648;23.270;2023-09-30T04:46:05;5.20;;;4.00;;
1020;SDS011;499;42.648;23.270;2023-09-30T04:48:33;5.43;;;4.30;;
1020;SDS011;499;42.648;23.270;2023-09-30T04:51:05;4.43;;;3.70;;
1020;SDS011;499;42.648;23.270;2023-09-30T04:53:33;6.50;;;4.67;;
1020;SDS011;499;42.648;23.270;2023-09-30T04:56:00;8.27;;;4.57;;
1020;SDS011;499;42.648;23.270;2023-09-30T04:58:28;5.23;;;4.17;;
1020;SDS011;499;42.648;23.270;2023-09-30T05:00:56;4.87;;;4.17;;
1020;SDS011;499;42.648;23.270;2023-09-30T05:03:23;5.10;;;4.50;;
1020;SDS011;499;42.648;23.270;2023-09-30T05:05:51;5.37;;;4.40;;
1020;SDS011;499;42.648;23.270;2023-09-30T05:08:22;5.77;;;4.60;;
1020;SDS011;499;42.648;23.270;2023-09-30T05:10:49;5.23;;;4.50;;
1020;SDS011;499;42.648;23.270;2023-09-30T05:13:18;5.90;;;4.77;;
1020;SDS011;499;42.648;23.270;2023-09-30T05:15:45;5.80;;;4.23;;
1020;SDS011;499;42.648;23.270;2023-09-30T05:18:12;7.93;;;4.33;;
1020;SDS011;499;42.648;23.270;2023-09-30T05:20:39;8.07;;;5.03;;
1020;SDS011;499;42.648;23.270;2023-09-30T05:23:06;5.37;;;4.27;;
1020;SDS011;499;42.648;23.270;2023-09-30T05:25:35;7.50;;;4.70;;
1020;SDS011;499;42.648;23.270;2023-09-30T05:28:02;6.17;;;4.33;;
1020;SDS011;499;42.648;23.270;2023-09-30T05:30:29;5.90;;;4.87;;
1020;SDS011;499;42.648;23.270;2023-09-30T05:32:56;8.50;;;5.40;;
1020;SDS011;499;42.648;23.270;2023-09-30T05:35:24;7.00;;;5.50;;
1020;SDS011;499;42.648;23.270;2023-09-30T05:37:51;4.73;;;4.23;;
1020;SDS011;499;42.648;23.270;2023-09-30T05:40:18;7.20;;;5.00;;
1020;SDS011;499;42.648;23.270;2023-09-30T05:42:53;4.80;;;4.17;;
1020;SDS011;499;42.648;23.270;2023-09-30T05:47:51;5.37;;;4.87;;
1020;SDS011;499;42.648;23.270;2023-09-30T05:50:19;9.30;;;4.60;;
1020;SDS011;499;42.648;23.270;2023-09-30T05:52:49;7.33;;;5.07;;
1020;SDS011;499;42.648;23.270;2023-09-30T05:55:17;5.93;;;4.93;;
1020;SDS011;499;42.648;23.270;2023-09-30T05:57:45;6.90;;;3.87;;
1020;SDS011;499;42.648;23.270;2023-09-30T06:00:14;4.47;;;4.03;;
1020;SDS011;499;42.648;23.270;2023-09-30T06:02:47;4.73;;;3.60;;
1020;SDS011;499;42.648;23.270;2023-09-30T06:05:14;4.57;;;3.73;;
1020;SDS011;499;42.648;23.270;2023-09-30T06:07:44;5.13;;;3.77;;
1020;SDS011;499;42.648;23.270;2023-09-30T06:10:11;7.60;;;4.30;;
1020;SDS011;499;42.648;23.270;2023-09-30T06:12:44;5.70;;;4.27;;
1020;SDS011;499;42.648;23.270;2023-09-30T06:15:12;5.10;;;4.03;;
1020;SDS011;499;42.648;23.270;2023-09-30T06:17:46;8.80;;;4.23;;
1020;SDS011;499;42.648;23.270;2023-09-30T06:20:14;5.40;;;3.43;;
1020;SDS011;499;42.648;23.270;2023-09-30T06:22:42;6.10;;;3.50;;
1020;SDS011;499;42.648;23.270;2023-09-30T06:25:10;7.03;;;4.67;;
1020;SDS011;499;42.648;23.270;2023-09-30T06:27:41;4.77;;;3.93;;
1020;SDS011;499;42.648;23.270;2023-09-30T06:30:09;7.50;;;3.87;;
1020;SDS011;499;42.648;23.270;2023-09-30T06:32:38;19.80;;;5.40;;
1020;SDS011;499;42.648;23.270;2023-09-30T06:35:06;9.73;;;4.90;;
1020;SDS011;499;42.648;23.270;2023-09-30T06:37:35;5.50;;;4.20;;
1020;SDS011;499;42.648;23.270;2023-09-30T06:40:04;7.50;;;4.83;;
1020;SDS011;499;42.648;23.270;2023-09-30T06:42:33;5.73;;;4.10;;
1020;SDS011;499;42.648;23.270;2023-09-30T06:45:00;5.10;;;4.30;;
1020;SDS011;499;42.648;23.270;2023-09-30T06:47:30;5.53;;;4.20;;
1020;SDS011;499;42.648;23.270;2023-09-30T06:50:00;6.70;;;4.10;;
1020;SDS011;499;42.648;23.270;2023-09-30T06:52:32;5.37;;;3.87;;
1020;SDS011;499;42.648;23.270;2023-09-30T06:55:00;7.13;;;4.90;;
1020;SDS011;499;42.648;23.270;2023-09-30T06:57:29;4.30;;;3.90;;
1020;SDS011;499;42.648;23.270;2023-09-30T06:59:57;6.87;;;5.17;;
1020;SDS011;499;42.648;23.270;2023-09-30T07:02:24;5.43;;;4.27;;
1020;SDS011;499;42.648;23.270;2023-09-30T07:04:51;6.00;;;4.23;;
1020;SDS011;499;42.648;23.270;2023-09-30T07:07:20;7.40;;;4.50;;
1020;SDS011;499;42.648;23.270;2023-09-30T07:09:47;7.00;;;4.50;;
1020;SDS011;499;42.648;23.270;2023-09-30T07:12:14;6.03;;;5.10;;
1020;SDS011;499;42.648;23.270;2023-09-30T07:14:41;5.97;;;5.37;;
1020;SDS011;499;42.648;23.270;2023-09-30T07:17:08;6.33;;;4.97;;
1020;SDS011;499;42.648;23.270;2023-09-30T07:19:36;10.20;;;5.57;;
1020;SDS011;499;42.648;23.270;2023-09-30T07:22:03;7.47;;;4.97;;
1020;SDS011;499;42.648;23.270;2023-09-30T07:24:31;6.90;;;5.17;;
1020;SDS011;499;42.648;23.270;2023-09-30T07:26:58;9.20;;;5.77;;
1020;SDS011;499;42.648;23.270;2023-09-30T07:29:25;5.90;;;5.17;;
1020;SDS011;499;42.648;23.270;2023-09-30T07:31:52;7.17;;;5.07;;
1020;SDS011;499;42.648;23.270;2023-09-30T07:34:19;5.40;;;4.43;;
1020;SDS011;499;42.648;23.270;2023-09-30T07:36:46;8.13;;;4.70;;
1020;SDS011;499;42.648;23.270;2023-09-30T07:39:13;9.10;;;5.20;;
1020;SDS011;499;42.648;23.270;2023-09-30T07:41:43;6.77;;;4.90;;
1020;SDS011;499;42.648;23.270;2023-09-30T07:44:09;8.47;;;5.40;;
1020;SDS011;499;42.648;23.270;2023-09-30T07:46:36;7.37;;;4.63;;
1020;SDS011;499;42.648;23.270;2023-09-30T07:49:03;4.80;;;4.30;;
1020;SDS011;499;42.648;23.270;2023-09-30T07:51:32;8.53;;;4.57;;
1020;SDS011;499;42.648;23.270;2023-09-30T07:53:59;5.63;;;4.73;;
1020;SDS011;499;42.648;23.270;2023-09-30T07:56:26;9.83;;;4.13;;
1020;SDS011;499;42.648;23.270;2023-09-30T07:58:55;11.03;;;4.03;;
1020;SDS011;499;42.648;23.270;2023-09-30T08:01:22;9.10;;;4.60;;
1020;SDS011;499;42.648;23.270;2023-09-30T08:03:50;6.60;;;4.57;;
1020;SDS011;499;42.648;23.270;2023-09-30T08:06:17;6.60;;;5.10;;
1020;SDS011;499;42.648;23.270;2023-09-30T08:08:44;7.33;;;4.50;;
1020;SDS011;499;42.648;23.270;2023-09-30T08:11:12;7.27;;;4.43;;
1020;SDS011;499;42.648;23.270;2023-09-30T08:13:39;8.80;;;5.00;;
1020;SDS011;499;42.648;23.270;2023-09-30T08:16:07;4.40;;;3.83;;
1020;SDS011;499;42.648;23.270;2023-09-30T08:18:34;6.00;;;4.53;;
1020;SDS011;499;42.648;23.270;2023-09-30T08:21:02;5.30;;;4.47;;
1020;SDS011;499;42.648;23.270;2023-09-30T08:23:30;5.93;;;4.73;;
1020;SDS011;499;42.648;23.270;2023-09-30T08:25:58;5.77;;;4.53;;
1020;SDS011;499;42.648;23.270;2023-09-30T08:28:25;5.47;;;4.97;;
1020;SDS011;499;42.648;23.270;2023-09-30T08:30:52;8.67;;;5.30;;
1020;SDS011;499;42.648;23.270;2023-09-30T08:33:25;7.83;;;5.43;;
1020;SDS011;499;42.648;23.270;2023-09-30T08:35:55;6.90;;;5.27;;
1020;SDS011;499;42.648;23.270;2023-09-30T08:38:23;7.07;;;5.80;;
1020;SDS011;499;42.648;23.270;2023-09-30T08:40:51;8.37;;;5.90;;
1020;SDS011;499;42.648;23.270;2023-09-30T08:43:19;8.37;;;6.00;;
1020;SDS011;499;42.648;23.270;2023-09-30T08:45:53;9.07;;;6.53;;
1020;SDS011;499;42.648;23.270;2023-09-30T08:48:20;6.20;;;5.30;;
1020;SDS011;499;42.648;23.270;2023-09-30T08:50:53;7.60;;;5.90;;
1020;SDS011;499;42.648;23.270;2023-09-30T08:53:20;10.63;;;7.10;;
1020;SDS011;499;42.648;23.270;2023-09-30T08:55:48;8.60;;;7.07;;
1020;SDS011;499;42.648;23.270;2023-09-30T08:58:19;8.93;;;7.30;;
1020;SDS011;499;42.648;23.270;2023-09-30T09:00:46;8.53;;;6.27;;
1020;SDS011;499;42.648;23.270;2023-09-30T09:03:14;8.33;;;6.40;;
1020;SDS011;499;42.648;23.270;2023-09-30T09:05:41;10.20;;;7.40;;
1020;SDS011;499;42.648;23.270;2023-09-30T09:08:09;10.43;;;7.47;;
1020;SDS011;499;42.648;23.270;2023-09-30T09:10:40;7.97;;;7.13;;
1020;SDS011;499;42.648;23.270;2023-09-30T09:13:19;13.60;;;6.90;;
1020;SDS011;499;42.648;23.270;2023-09-30T09:15:46;10.07;;;8.37;;
1020;SDS011;499;42.648;23.270;2023-09-30T09:18:14;17.57;;;8.30;;
1020;SDS011;499;42.648;23.270;2023-09-30T09:21:08;8.77;;;7.80;;
1020;SDS011;499;42.648;23.270;2023-09-30T09:23:40;11.70;;;7.53;;
1020;SDS011;499;42.648;23.270;2023-09-30T09:26:08;8.07;;;7.07;;
1020;SDS011;499;42.648;23.270;2023-09-30T09:28:36;11.97;;;7.13;;
1020;SDS011;499;42.648;23.270;2023-09-30T09:31:20;9.87;;;6.53;;
1020;SDS011;499;42.648;23.270;2023-09-30T09:33:48;8.87;;;6.90;;
1020;SDS011;499;42.648;23.270;2023-09-30T09:36:16;7.53;;;6.13;;
1020;SDS011;499;42.648;23.270;2023-09-30T09:38:46;11.13;;;7.93;;
1020;SDS011;499;42.648;23.270;2023-09-30T09:41:15;7.23;;;6.53;;
1020;SDS011;499;42.648;23.270;2023-09-30T09:43:42;8.63;;;7.07;;
1020;SDS011;499;42.648;23.270;2023-09-30T09:46:10;8.93;;;6.80;;
1020;SDS011;499;42.648;23.270;2023-09-30T09:48:39;10.17;;;5.67;;
1020;SDS011;499;42.648;23.270;2023-09-30T09:51:06;6.67;;;5.97;;
1020;SDS011;499;42.648;23.270;2023-09-30T09:53:37;6.80;;;5.30;;
1020;SDS011;499;42.648;23.270;2023-09-30T09:56:08;9.23;;;5.77;;
1020;SDS011;499;42.648;23.270;2023-09-30T09:58:37;7.93;;;5.37;;
1020;SDS011;499;42.648;23.270;2023-09-30T10:01:07;5.53;;;4.93;;
1020;SDS011;499;42.648;23.270;2023-09-30T10:03:36;9.40;;;6.23;;
1020;SDS011;499;42.648;23.270;2023-09-30T10:06:05;7.00;;;5.60;;
1020;SDS011;499;42.648;23.270;2023-09-30T10:08:35;7.00;;;5.90;;
1020;SDS011;499;42.648;23.270;2023-09-30T10:11:04;9.97;;;6.33;;
1020;SDS011;499;42.648;23.270;2023-09-30T10:13:52;8.50;;;5.17;;
1020;SDS011;499;42.648;23.270;2023-09-30T10:19:20;8.90;;;4.57;;
1020;SDS011;499;42.648;23.270;2023-09-30T10:24:50;7.83;;;4.10;;
1020;SDS011;499;42.648;23.270;2023-09-30T10:27:30;6.73;;;4.03;;
1020;SDS011;499;42.648;23.270;2023-09-30T10:30:11;5.27;;;4.37;;
1020;SDS011;499;42.648;23.270;2023-09-30T10:35:46;8.20;;;4.63;;
1020;SDS011;499;42.648;23.270;2023-09-30T10:41:03;5.03;;;3.80;;
1020;SDS011;499;42.648;23.270;2023-09-30T10:43:30;5.23;;;3.87;;
1020;SDS011;499;42.648;23.270;2023-09-30T10:45:59;8.37;;;3.83;;
1020;SDS011;499;42.648;23.270;2023-09-30T10:48:36;5.00;;;4.20;;
1020;SDS011;499;42.648;23.270;2023-09-30T10:51:16;4.53;;;3.20;;
1020;SDS011;499;42.648;23.270;2023-09-30T10:53:49;3.50;;;3.13;;
1020;SDS011;499;42.648;23.270;2023-09-30T10:56:18;4.20;;;3.37;;
1020;SDS011;499;42.648;23.270;2023-09-30T10:58:46;4.47;;;2.63;;
1020;SDS011;499;42.648;23.270;2023-09-30T11:01:16;5.90;;;3.53;;
1020;SDS011;499;42.648;23.270;2023-09-30T11:03:44;4.83;;;3.23;;
1020;SDS011;499;42.648;23.270;2023-09-30T11:06:12;5.07;;;3.40;;
1020;SDS011;499;42.648;23.270;2023-09-30T11:08:44;6.80;;;4.10;;
1020;SDS011;499;42.648;23.270;2023-09-30T11:11:12;4.90;;;3.80;;
1020;SDS011;499;42.648;23.270;2023-09-30T11:13:39;5.40;;;3.53;;
1020;SDS011;499;42.648;23.270;2023-09-30T11:16:06;4.50;;;3.40;;
1020;SDS011;499;42.648;23.270;2023-09-30T11:18:35;4.30;;;2.97;;
1020;SDS011;499;42.648;23.270;2023-09-30T11:21:07;5.37;;;4.20;;
1020;SDS011;499;42.648;23.270;2023-09-30T11:23:36;6.60;;;2.80;;
1020;SDS011;499;42.648;23.270;2023-09-30T11:26:03;4.87;;;3.13;;
1020;SDS011;499;42.648;23.270;2023-09-30T11:28:38;8.80;;;3.90;;
1020;SDS011;499;42.648;23.270;2023-09-30T11:31:09;5.03;;;3.30;;
1020;SDS011;499;42.648;23.270;2023-09-30T11:33:53;5.93;;;3.80;;
1020;SDS011;499;42.648;23.270;2023-09-30T11:36:22;4.97;;;4.00;;
1020;SDS011;499;42.648;23.270;2023-09-30T11:38:50;4.40;;;2.97;;
1020;SDS011;499;42.648;23.270;2023-09-30T11:41:19;8.60;;;4.23;;
1020;SDS011;499;42.648;23.270;2023-09-30T11:44:00;4.60;;;3.70;;
1020;SDS011;499;42.648;23.270;2023-09-30T11:46:30;4.90;;;4.20;;
1020;SDS011;499;42.648;23.270;2023-09-30T11:49:00;4.50;;;3.37;;
1020;SDS011;499;42.648;23.270;2023-09-30T11:51:28;5.03;;;4.10;;
1020;SDS011;499;42.648;23.270;2023-09-30T11:53:56;3.73;;;3.33;;
1020;SDS011;499;42.648;23.270;2023-09-30T11:56:24;4.50;;;3.20;;
1020;SDS011;499;42.648;23.270;2023-09-30T11:58:54;6.80;;;4.23;;
1020;SDS011;499;42.648;23.270;2023-09-30T12:01:22;5.40;;;3.70;;
1020;SDS011;499;42.648;23.270;2023-09-30T12:03:50;7.10;;;3.50;;
1020;SDS011;499;42.648;23.270;2023-09-30T12:06:21;4.23;;;3.47;;
1020;SDS011;499;42.648;23.270;2023-09-30T12:08:49;6.57;;;4.30;;
1020;SDS011;499;42.648;23.270;2023-09-30T12:11:17;8.93;;;4.20;;
1020;SDS011;499;42.648;23.270;2023-09-30T12:13:43;4.60;;;3.60;;
1020;SDS011;499;42.648;23.270;2023-09-30T12:16:10;6.17;;;4.00;;
1020;SDS011;499;42.648;23.270;2023-09-30T12:18:38;7.27;;;4.70;;
1020;SDS011;499;42.648;23.270;2023-09-30T12:21:06;6.07;;;4.30;;
1020;SDS011;499;42.648;23.270;2023-09-30T12:23:34;6.40;;;4.77;;
1020;SDS011;499;42.648;23.270;2023-09-30T12:26:01;7.37;;;4.20;;
1020;SDS011;499;42.648;23.270;2023-09-30T12:28:30;6.03;;;3.90;;
1020;SDS011;499;42.648;23.270;2023-09-30T12:30:58;5.90;;;5.00;;
1020;SDS011;499;42.648;23.270;2023-09-30T12:33:27;6.10;;;3.90;;
1020;SDS011;499;42.648;23.270;2023-09-30T12:35:55;4.60;;;3.53;;
1020;SDS011;499;42.648;23.270;2023-09-30T12:38:23;5.63;;;3.77;;
1020;SDS011;499;42.648;23.270;2023-09-30T12:40:53;5.10;;;3.90;;
1020;SDS011;499;42.648;23.270;2023-09-30T12:43:20;5.30;;;3.53;;
1020;SDS011;499;42.648;23.270;2023-09-30T12:45:47;4.90;;;4.10;;
1020;SDS011;499;42.648;23.270;2023-09-30T12:48:14;4.47;;;3.27;;
1020;SDS011;499;42.648;23.270;2023-09-30T12:50:42;7.50;;;3.33;;
1020;SDS011;499;42.648;23.270;2023-09-30T12:53:09;4.83;;;3.77;;
1020;SDS011;499;42.648;23.270;2023-09-30T12:55:36;5.50;;;4.20;;
1020;SDS011;499;42.648;23.270;2023-09-30T12:58:05;4.77;;;2.90;;
1020;SDS011;499;42.648;23.270;2023-09-30T13:00:33;5.87;;;4.03;;
1020;SDS011;499;42.648;23.270;2023-09-30T13:03:01;5.00;;;3.93;;
1020;SDS011;499;42.648;23.270;2023-09-30T13:05:28;5.90;;;3.87;;
1020;SDS011;499;42.648;23.270;2023-09-30T13:07:55;5.43;;;4.50;;
1020;SDS011;499;42.648;23.270;2023-09-30T13:10:23;6.73;;;4.07;;
1020;SDS011;499;42.648;23.270;2023-09-30T13:12:50;6.70;;;4.00;;
1020;SDS011;499;42.648;23.270;2023-09-30T13:15:20;7.13;;;4.43;;
1020;SDS011;499;42.648;23.270;2023-09-30T13:17:49;5.23;;;4.53;;
1020;SDS011;499;42.648;23.270;2023-09-30T13:20:16;5.63;;;3.77;;
1020;SDS011;499;42.648;23.270;2023-09-30T13:22:43;6.67;;;4.40;;
1020;SDS011;499;42.648;23.270;2023-09-30T13:25:10;6.60;;;4.50;;
1020;SDS011;499;42.648;23.270;2023-09-30T13:27:38;5.53;;;4.37;;
1020;SDS011;499;42.648;23.270;2023-09-30T13:30:06;5.30;;;3.80;;
1020;SDS011;499;42.648;23.270;2023-09-30T13:32:35;4.40;;;3.83;;
1020;SDS011;499;42.648;23.270;2023-09-30T13:35:02;4.60;;;4.00;;
1020;SDS011;499;42.648;23.270;2023-09-30T13:37:30;6.70;;;4.60;;
1020;SDS011;499;42.648;23.270;2023-09-30T13:39:58;6.43;;;4.40;;
1020;SDS011;499;42.648;23.270;2023-09-30T13:42:27;7.17;;;4.90;;
1020;SDS011;499;42.648;23.270;2023-09-30T13:44:55;5.70;;;4.53;;
1020;SDS011;499;42.648;23.270;2023-09-30T13:47:24;10.83;;;4.20;;
1020;SDS011;499;42.648;23.270;2023-09-30T13:49:52;10.53;;;4.27;;
1020;SDS011;499;42.648;23.270;2023-09-30T13:52:20;5.50;;;4.50;;
1020;SDS011;499;42.648;23.270;2023-09-30T13:54:47;7.03;;;4.40;;
1020;SDS011;499;42.648;23.270;2023-09-30T13:57:14;8.67;;;5.40;;
1020;SDS011;499;42.648;23.270;2023-09-30T13:59:41;5.43;;;4.53;;
1020;SDS011;499;42.648;23.270;2023-09-30T14:02:08;6.23;;;5.10;;
1020;SDS011;499;42.648;23.270;2023-09-30T14:04:35;8.40;;;4.97;;
1020;SDS011;499;42.648;23.270;2023-09-30T14:07:04;7.33;;;4.80;;
1020;SDS011;499;42.648;23.270;2023-09-30T14:09:33;5.07;;;4.00;;
1020;SDS011;499;42.648;23.270;2023-09-30T14:12:00;4.23;;;3.57;;
1020;SDS011;499;42.648;23.270;2023-09-30T14:14:30;8.30;;;5.33;;
1020;SDS011;499;42.648;23.270;2023-09-30T14:16:58;10.10;;;4.63;;
1020;SDS011;499;42.648;23.270;2023-09-30T14:19:32;7.07;;;4.30;;
1020;SDS011;499;42.648;23.270;2023-09-30T14:21:59;7.57;;;4.13;;
1020;SDS011;499;42.648;23.270;2023-09-30T14:24:28;4.40;;;4.00;;
1020;SDS011;499;42.648;23.270;2023-09-30T14:26:55;5.20;;;4.57;;
1020;SDS011;499;42.648;23.270;2023-09-30T14:29:22;5.37;;;4.00;;
1020;SDS011;499;42.648;23.270;2023-09-30T14:31:49;6.90;;;4.63;;
1020;SDS011;499;42.648;23.270;2023-09-30T14:34:16;5.03;;;3.87;;
1020;SDS011;499;42.648;23.270;2023-09-30T14:36:43;5.80;;;4.67;;
1020;SDS011;499;42.648;23.270;2023-09-30T14:39:11;10.43;;;4.67;;
1020;SDS011;499;42.648;23.270;2023-09-30T14:41:39;5.07;;;4.00;;
1020;SDS011;499;42.648;23.270;2023-09-30T14:44:07;5.50;;;4.50;;
1020;SDS011;499;42.648;23.270;2023-09-30T14:46:37;5.10;;;3.90;;
1020;SDS011;499;42.648;23.270;2023-09-30T14:49:04;5.37;;;4.00;;
1020;SDS011;499;42.648;23.270;2023-09-30T14:51:32;7.40;;;4.70;;
1020;SDS011;499;42.648;23.270;2023-09-30T14:53:59;4.87;;;4.03;;
1020;SDS011;499;42.648;23.270;2023-09-30T14:56:27;3.80;;;3.30;;
1020;SDS011;499;42.648;23.270;2023-09-30T14:58:55;7.00;;;4.53;;
1020;SDS011;499;42.648;23.270;2023-09-30T15:01:22;4.93;;;4.23;;
1020;SDS011;499;42.648;23.270;2023-09-30T15:03:51;5.00;;;4.13;;
1020;SDS011;499;42.648;23.270;2023-09-30T15:06:18;7.23;;;4.40;;
1020;SDS011;499;42.648;23.270;2023-09-30T15:08:46;3.97;;;3.57;;
1020;SDS011;499;42.648;23.270;2023-09-30T15:11:13;9.77;;;3.83;;
1020;SDS011;499;42.648;23.270;2023-09-30T15:13:41;6.60;;;4.10;;
1020;SDS011;499;42.648;23.270;2023-09-30T15:16:16;4.60;;;4.10;;
1020;SDS011;499;42.648;23.270;2023-09-30T15:18:44;5.30;;;3.53;;
1020;SDS011;499;42.648;23.270;2023-09-30T15:21:12;9.10;;;4.20;;
1020;SDS011;499;42.648;23.270;2023-09-30T15:23:40;3.93;;;3.23;;
1020;SDS011;499;42.648;23.270;2023-09-30T15:26:07;7.30;;;5.23;;
1020;SDS011;499;42.648;23.270;2023-09-30T15:28:35;8.50;;;4.40;;
1020;SDS011;499;42.648;23.270;2023-09-30T15:31:03;4.60;;;4.03;;
1020;SDS011;499;42.648;23.270;2023-09-30T15:33:33;7.03;;;4.30;;
1020;SDS011;499;42.648;23.270;2023-09-30T15:36:08;6.70;;;4.10;;